Time;durP1;ratioP1;P1;durP2;ratioP2;P2;SDS_P1;SDS_P2;PMS_P1;PMS_P2;Temp;Humidity;BMP_temperature;BMP_pressure;BME280_temperature;BME280_humidity;BME280_pressure;Samples;Min_cycle;Max_cycle;Signal;HPM_P1;HPM_P2
2021/06/14 00:00:56;;;;;;;3.90;2.00;;;;;;;12.34;60.51;100701.12;153965;1101;103115;-76
2021/06/14 00:04:01;;;;;;;4.93;2.10;;;;;;;12.36;61.05;100699.13;153908;1101;103179;-76
2021/06/14 00:07:07;;;;;;;5.75;2.38;;;;;;;12.34;60.70;100706.47;154018;1101;103265;-78
2021/06/14 00:10:14;;;;;;;4.97;2.20;;;;;;;12.31;60.65;100709.44;153973;1097;103160;-75
2021/06/14 00:13:20;;;;;;;5.80;2.10;;;;;;;12.26;61.25;100708.22;154056;1101;103139;-75
2021/06/14 00:16:25;;;;;;;6.07;2.23;;;;;;;12.24;61.15;100710.20;154027;1097;103161;-75
2021/06/14 00:19:30;;;;;;;3.73;2.13;;;;;;;12.13;61.39;100709.45;154087;1096;103165;-74
2021/06/14 00:22:35;;;;;;;5.33;2.47;;;;;;;12.08;61.09;100710.89;153998;1101;103213;-76
2021/06/14 00:25:42;;;;;;;4.93;2.30;;;;;;;12.01;61.71;100716.02;153950;1101;103133;-74
2021/06/14 00:28:47;;;;;;;3.30;1.90;;;;;;;11.92;62.97;100709.73;153923;1096;103177;-75
2021/06/14 00:31:53;;;;;;;4.83;2.30;;;;;;;11.83;61.92;100710.59;153956;1101;103158;-74
2021/06/14 00:34:58;;;;;;;4.33;2.23;;;;;;;11.79;62.18;100712.72;153958;1095;103423;-73
2021/06/14 00:38:03;;;;;;;6.48;2.25;;;;;;;11.77;61.58;100709.36;154040;1097;103118;-75
2021/06/14 00:41:11;;;;;;;6.35;2.50;;;;;;;11.72;62.39;100713.47;153956;1101;103193;-73
2021/06/14 00:44:16;;;;;;;6.48;2.85;;;;;;;11.65;61.95;100710.56;154019;1101;103154;-73
2021/06/14 00:47:22;;;;;;;6.08;2.70;;;;;;;11.63;62.69;100715.22;154008;1097;103219;-74
2021/06/14 00:50:39;;;;;;;5.77;2.40;;;;;;;11.59;62.19;100700.48;153938;1101;103217;-75
2021/06/14 00:53:55;;;;;;;4.87;2.63;;;;;;;11.61;62.47;100713.70;154007;1101;103224;-74
2021/06/14 00:57:01;;;;;;;5.05;2.70;;;;;;;11.56;63.21;100716.80;153993;1101;103160;-74
2021/06/14 01:00:08;;;;;;;6.00;2.43;;;;;;;11.53;62.06;100714.44;153920;1101;103175;-73
2021/06/14 01:03:21;;;;;;;7.03;2.40;;;;;;;11.54;62.44;100708.92;153961;1101;103140;-74
2021/06/14 01:06:26;;;;;;;6.73;2.50;;;;;;;11.58;62.70;100717.48;153989;1094;103298;-74
2021/06/14 01:09:32;;;;;;;11.30;3.03;;;;;;;11.55;62.52;100717.80;154074;1101;103135;-75
2021/06/14 01:12:43;;;;;;;6.65;2.50;;;;;;;11.53;62.35;100714.44;154103;1101;103247;-75
2021/06/14 01:16:00;;;;;;;7.30;2.20;;;;;;;11.52;62.46;100712.73;154034;1097;103124;-75
2021/06/14 01:19:22;;;;;;;4.93;2.35;;;;;;;11.43;62.84;100716.30;154066;1096;103576;-75
2021/06/14 01:23:00;;;;;;;4.85;2.80;;;;;;;11.31;64.00;100724.48;154087;1096;103294;-75
2021/06/14 01:26:11;;;;;;;6.03;2.57;;;;;;;11.23;63.58;100721.72;154068;1096;103176;-75
2021/06/14 01:29:17;;;;;;;4.90;2.88;;;;;;;11.19;63.28;100714.98;153973;1101;103169;-72
2021/06/14 01:32:23;;;;;;;5.50;2.40;;;;;;;11.14;63.92;100719.91;153980;1101;103314;-72
2021/06/14 01:35:32;;;;;;;4.10;2.33;;;;;;;11.15;64.21;100718.94;153990;1101;103100;-72
2021/06/14 01:38:40;;;;;;;6.95;2.68;;;;;;;11.18;63.68;100714.16;154006;1095;103307;-72
2021/06/14 01:41:48;;;;;;;8.37;2.90;;;;;;;11.17;64.21;100715.13;153976;1094;103142;-71
2021/06/14 01:44:55;;;;;;;6.43;2.90;;;;;;;11.17;63.91;100716.96;153996;1101;103154;-72
2021/06/14 01:48:03;;;;;;;6.45;2.75;;;;;;;11.18;63.56;100710.61;153957;1101;103224;-72
2021/06/14 01:51:12;;;;;;;5.75;2.90;;;;;;;11.17;64.48;100712.45;154013;1095;103171;-74
2021/06/14 01:54:17;;;;;;;4.33;2.73;;;;;;;11.08;64.23;100717.83;153934;1096;103391;-73
2021/06/14 01:57:55;;;;;;;8.73;2.90;;;;;;;10.99;64.31;100723.05;153787;1101;103253;-73
2021/06/14 02:01:08;;;;;;;6.55;2.95;;;;;;;10.97;64.35;100722.36;153912;1096;103269;-73
2021/06/14 02:04:17;;;;;;;6.53;2.83;;;;;;;10.92;65.31;100727.28;153922;1101;103256;-73
2021/06/14 02:07:43;;;;;;;6.10;3.08;;;;;;;10.96;64.98;100723.33;153895;1097;103143;-75
2021/06/14 02:10:50;;;;;;;6.33;2.87;;;;;;;11.03;64.32;100712.06;153957;1097;103213;-73
2021/06/14 02:13:57;;;;;;;5.35;3.10;;;;;;;11.03;65.20;100706.72;154064;1101;103197;-77
2021/06/14 02:17:06;;;;;;;5.93;3.20;;;;;;;11.03;64.55;100718.27;154017;1101;103214;-75
2021/06/14 02:20:14;;;;;;;7.00;3.15;;;;;;;10.91;66.05;100709.59;153973;1101;103153;-75
2021/06/14 02:23:19;;;;;;;5.38;3.30;;;;;;;10.94;64.66;100714.63;154062;1101;103139;-73
2021/06/14 02:26:25;;;;;;;5.37;2.93;;;;;;;10.98;64.78;100713.34;153940;1095;103304;-74
2021/06/14 02:29:31;;;;;;;6.70;2.65;;;;;;;11.00;65.14;100715.88;154085;1097;103223;-75
2021/06/14 02:32:36;;;;;;;6.25;2.50;;;;;;;11.05;64.81;100713.63;153937;1101;103567;-73
2021/06/14 02:35:42;;;;;;;4.30;2.73;;;;;;;11.12;64.89;100716.55;154056;1097;103256;-74
2021/06/14 02:38:49;;;;;;;6.57;3.03;;;;;;;11.13;64.88;100712.91;154075;1101;103138;-75
2021/06/14 02:41:58;;;;;;;6.08;3.10;;;;;;;11.09;66.62;100714.19;154123;1096;103224;-77
2021/06/14 02:45:04;;;;;;;5.23;3.00;;;;;;;11.05;65.96;100713.63;154015;1096;103160;-75
2021/06/14 02:48:11;;;;;;;7.57;3.20;;;;;;;11.03;65.40;100710.27;153945;1101;103129;-75
2021/06/14 02:51:19;;;;;;;5.83;3.23;;;;;;;11.09;66.13;100714.19;153940;1097;103100;-75
2021/06/14 02:54:29;;;;;;;8.03;3.18;;;;;;;11.04;66.00;100717.27;154037;1101;103471;-74
2021/06/14 02:57:35;;;;;;;5.67;2.80;;;;;;;11.01;65.57;100714.91;153956;1101;103213;-74
2021/06/14 03:00:41;;;;;;;7.40;3.33;;;;;;;11.05;65.88;100710.09;153998;1096;103154;-75
2021/06/14 03:03:48;;;;;;;5.70;3.13;;;;;;;11.10;65.91;100729.20;154017;1101;103176;-73
2021/06/14 03:06:56;;;;;;;6.07;3.00;;;;;;;11.16;65.67;100721.47;154061;1101;103225;-75
2021/06/14 03:10:05;;;;;;;8.40;3.40;;;;;;;11.16;65.96;100723.27;154031;1101;103119;-75
2021/06/14 03:13:12;;;;;;;6.53;3.20;;;;;;;11.16;66.01;100718.80;153980;1095;103272;-74
2021/06/14 03:16:18;;;;;;;5.53;3.47;;;;;;;11.09;66.23;100724.87;154214;1097;103222;-74
2021/06/14 03:19:26;;;;;;;8.90;3.20;;;;;;;11.20;66.89;100727.33;154018;1102;103256;-74
2021/06/14 03:22:35;;;;;;;7.10;3.43;;;;;;;11.18;66.17;100729.31;153914;1101;103144;-74
2021/06/14 03:25:40;;;;;;;4.90;2.97;;;;;;;11.24;65.97;100733.23;154002;1094;103110;-72
2021/06/14 03:28:48;;;;;;;8.10;3.17;;;;;;;11.42;66.53;100734.16;153953;1096;103250;-72
2021/06/14 03:31:54;;;;;;;5.58;3.30;;;;;;;11.68;66.25;100731.66;154001;1101;103144;-78
2021/06/14 03:35:00;;;;;;;5.70;2.90;;;;;;;11.92;66.08;100740.98;153990;1095;103267;-72
2021/06/14 03:38:08;;;;;;;7.43;3.80;;;;;;;12.06;65.33;100739.63;153968;1101;103227;-72
2021/06/14 03:41:13;;;;;;;7.55;3.40;;;;;;;12.27;65.36;100740.18;153951;1096;103133;-72
2021/06/14 03:44:21;;;;;;;6.90;4.10;;;;;;;12.45;65.88;100742.88;153928;1101;103280;-72
2021/06/14 03:47:26;;;;;;;5.25;3.30;;;;;;;12.64;65.07;100732.98;153974;1101;103225;-74
2021/06/14 03:50:31;;;;;;;7.85;3.10;;;;;;;12.85;64.70;100744.19;153937;1102;103118;-72
2021/06/14 03:53:39;;;;;;;7.95;3.53;;;;;;;13.03;64.83;100737.95;154001;1097;103235;-73
2021/06/14 03:56:44;;;;;;;6.20;3.65;;;;;;;13.23;64.22;100735.91;153981;1101;103221;-73
2021/06/14 03:59:49;;;;;;;5.50;3.33;;;;;;;13.42;64.10;100737.56;153990;1095;103317;-73
2021/06/14 04:02:55;;;;;;;9.00;3.48;;;;;;;13.50;64.33;100727.70;154000;1101;103131;-73
2021/06/14 04:06:11;;;;;;;9.70;4.03;;;;;;;13.64;63.87;100741.50;153939;1097;103187;-73
2021/06/14 04:09:20;;;;;;;7.63;4.00;;;;;;;13.69;63.67;100737.34;153928;1101;103152;-73
2021/06/14 04:12:25;;;;;;;8.08;3.75;;;;;;;13.74;63.59;100737.70;153955;1101;103148;-73
2021/06/14 04:15:30;;;;;;;7.03;3.55;;;;;;;13.85;63.44;100739.23;153969;1101;103220;-74
2021/06/14 04:18:35;;;;;;;6.90;3.53;;;;;;;13.90;63.65;100741.45;153972;1101;103195;-75
2021/06/14 04:21:40;;;;;;;5.88;3.30;;;;;;;14.01;63.51;100742.97;153933;1101;103145;-72
2021/06/14 04:24:45;;;;;;;6.23;3.47;;;;;;;14.14;62.97;100741.52;153934;1095;103132;-73
2021/06/14 04:27:51;;;;;;;9.45;3.68;;;;;;;14.19;63.10;100745.55;153929;1101;103122;-73
2021/06/14 04:30:56;;;;;;;7.93;4.00;;;;;;;14.30;63.24;100750.61;153932;1101;103689;-73
2021/06/14 04:34:01;;;;;;;7.03;3.47;;;;;;;14.45;62.78;100746.27;153967;1097;103207;-73
2021/06/14 04:37:07;;;;;;;7.03;3.50;;;;;;;14.49;62.82;100752.11;153944;1101;103145;-72
2021/06/14 04:40:13;;;;;;;6.23;3.90;;;;;;;14.54;62.59;100747.92;153944;1101;103564;-73
2021/06/14 04:43:18;;;;;;;7.23;3.80;;;;;;;14.63;62.60;100758.73;153934;1097;103125;-73
2021/06/14 04:46:23;;;;;;;8.20;3.80;;;;;;;14.66;62.82;100745.77;153914;1101;103277;-73
2021/06/14 04:49:28;;;;;;;6.85;3.73;;;;;;;14.79;62.14;100749.82;153977;1101;103145;-73
2021/06/14 04:52:33;;;;;;;9.75;3.80;;;;;;;14.91;61.76;100756.52;153973;1102;103138;-73
2021/06/14 04:55:38;;;;;;;8.63;3.83;;;;;;;14.89;62.71;100755.84;153934;1101;103214;-72
2021/06/14 04:58:43;;;;;;;7.53;3.38;;;;;;;14.99;62.40;100753.84;153952;1101;103135;-73
2021/06/14 05:01:48;;;;;;;6.60;3.57;;;;;;;15.11;62.34;100749.78;153978;1101;103192;-73
2021/06/14 05:04:53;;;;;;;9.03;3.53;;;;;;;15.29;61.74;100754.95;153978;1096;103122;-72
2021/06/14 05:07:59;;;;;;;12.30;4.13;;;;;;;15.36;61.76;100749.73;154065;1095;103133;-74
2021/06/14 05:11:04;;;;;;;9.27;4.13;;;;;;;15.29;60.90;100749.57;154033;1097;103199;-74
2021/06/14 05:14:09;;;;;;;6.30;4.20;;;;;;;15.40;61.74;100744.86;154074;1096;103676;-74
2021/06/14 05:17:17;;;;;;;8.95;4.15;;;;;;;15.52;61.87;100743.46;153992;1096;103253;-72
2021/06/14 05:20:22;;;;;;;9.27;4.30;;;;;;;15.61;61.78;100747.80;153966;1101;103130;-74
2021/06/14 05:23:27;;;;;;;8.73;4.40;;;;;;;15.62;61.72;100744.09;153933;1101;103130;-73
2021/06/14 05:26:32;;;;;;;7.18;4.00;;;;;;;15.67;61.62;100747.11;153925;1101;103138;-73
2021/06/14 05:29:37;;;;;;;6.90;3.57;;;;;;;15.69;61.73;100742.38;153959;1096;103219;-73
2021/06/14 05:32:43;;;;;;;6.88;3.65;;;;;;;15.70;61.05;100746.77;154067;1097;103198;-73
2021/06/14 05:35:48;;;;;;;5.50;3.73;;;;;;;15.73;60.79;100745.60;153951;1097;103133;-74
2021/06/14 05:38:54;;;;;;;7.30;3.90;;;;;;;15.71;60.91;100756.50;153985;1101;103129;-74
2021/06/14 05:41:59;;;;;;;8.27;3.90;;;;;;;15.75;61.17;100758.88;153967;1097;103224;-73
2021/06/14 05:45:06;;;;;;;6.23;3.50;;;;;;;15.86;61.35;100761.20;154038;1101;103509;-74
2021/06/14 05:48:12;;;;;;;6.25;3.60;;;;;;;15.90;61.02;100767.90;153964;1101;103264;-73
2021/06/14 05:51:17;;;;;;;6.80;3.80;;;;;;;15.92;60.62;100765.01;153972;1097;103483;-74
2021/06/14 05:54:22;;;;;;;7.03;3.63;;;;;;;15.92;60.67;100768.56;153955;1097;103140;-74
2021/06/14 05:57:27;;;;;;;7.38;3.75;;;;;;;15.94;61.35;100771.91;153929;1101;103204;-74
2021/06/14 06:00:33;;;;;;;7.57;3.40;;;;;;;16.05;60.93;100765.28;153943;1101;103132;-73
2021/06/14 06:03:39;;;;;;;5.90;3.80;;;;;;;16.05;60.45;100768.83;153941;1101;103206;-74
2021/06/14 06:06:44;;;;;;;6.83;3.63;;;;;;;16.09;59.92;100766.63;153981;1101;104582;-74
2021/06/14 06:09:49;;;;;;;8.13;3.47;;;;;;;16.12;60.90;100762.73;154007;1095;103243;-73
2021/06/14 06:12:54;;;;;;;9.57;4.70;;;;;;;16.15;60.67;100759.67;153931;1101;103135;-73
2021/06/14 06:15:59;;;;;;;7.50;3.77;;;;;;;16.17;60.28;100763.88;154026;1101;103129;-74
2021/06/14 06:19:04;;;;;;;6.77;3.20;;;;;;;16.15;60.67;100763.22;154007;1096;103263;-73
2021/06/14 06:22:09;;;;;;;6.70;3.70;;;;;;;16.19;60.57;100753.77;154018;1101;103190;-74
2021/06/14 06:25:17;;;;;;;9.17;4.00;;;;;;;16.21;60.80;100770.59;153935;1097;103551;-74
2021/06/14 06:28:23;;;;;;;9.05;3.90;;;;;;;16.20;60.97;100768.06;154016;1101;103132;-74
2021/06/14 06:31:28;;;;;;;11.05;3.78;;;;;;;16.13;60.45;100767.95;153975;1101;103200;-74
2021/06/14 06:34:33;;;;;;;5.43;3.93;;;;;;;16.18;60.88;100759.33;153915;1101;103194;-74
2021/06/14 06:37:38;;;;;;;6.58;3.13;;;;;;;16.25;60.64;100771.08;153972;1101;103235;-74
2021/06/14 06:40:43;;;;;;;5.53;3.23;;;;;;;16.30;60.54;100763.28;153945;1097;103139;-74
2021/06/14 06:43:48;;;;;;;5.48;3.08;;;;;;;16.30;60.45;100768.66;153993;1097;103314;-74
2021/06/14 06:46:54;;;;;;;6.20;3.03;;;;;;;16.35;60.87;100763.59;154075;1094;103144;-74
2021/06/14 06:49:59;;;;;;;5.98;3.45;;;;;;;16.42;60.23;100761.88;154034;1101;103264;-73
2021/06/14 06:53:04;;;;;;;7.68;3.45;;;;;;;16.44;60.25;100757.14;153969;1101;103142;-73
2021/06/14 06:56:10;;;;;;;8.13;3.93;;;;;;;16.54;60.27;100761.45;153954;1096;103139;-74
2021/06/14 06:59:16;;;;;;;5.70;3.58;;;;;;;16.64;60.35;100759.34;153909;1101;103227;-73
2021/06/14 07:02:21;;;;;;;4.93;3.30;;;;;;;16.77;60.67;100764.14;154030;1097;103153;-73
2021/06/14 07:05:27;;;;;;;8.07;3.90;;;;;;;16.84;60.32;100765.96;153949;1101;103264;-74
2021/06/14 07:08:32;;;;;;;7.07;3.53;;;;;;;16.85;60.04;100766.79;154024;1101;103131;-74
2021/06/14 07:11:37;;;;;;;5.10;3.60;;;;;;;16.80;59.83;100758.37;153928;1096;103203;-73
2021/06/14 07:14:42;;;;;;;6.85;3.35;;;;;;;16.78;60.22;100766.66;153930;1101;103221;-74
2021/06/14 07:17:47;;;;;;;5.88;3.08;;;;;;;16.80;60.11;100761.92;153990;1096;103224;-73
2021/06/14 07:20:54;;;;;;;7.67;3.53;;;;;;;16.82;60.07;100754.53;154090;1101;103181;-74
2021/06/14 07:24:00;;;;;;;5.43;3.67;;;;;;;16.94;59.99;100759.48;154015;1101;103200;-74
2021/06/14 07:27:06;;;;;;;6.80;3.83;;;;;;;16.94;59.41;100754.92;153982;1093;103125;-74
2021/06/14 07:30:14;;;;;;;8.00;3.85;;;;;;;17.03;59.78;100755.67;154105;1093;103302;-72
2021/06/14 07:33:19;;;;;;;7.80;4.00;;;;;;;17.16;59.99;100758.57;154033;1101;103198;-74
2021/06/14 07:36:25;;;;;;;8.03;3.53;;;;;;;17.13;59.33;100745.48;153975;1101;103277;-74
2021/06/14 07:39:30;;;;;;;7.40;3.80;;;;;;;17.23;59.27;100743.34;153971;1093;103218;-73
2021/06/14 07:42:35;;;;;;;6.58;3.35;;;;;;;17.27;59.09;100752.73;153930;1101;103071;-74
2021/06/14 07:45:41;;;;;;;5.83;3.23;;;;;;;17.42;59.43;100747.35;153938;1093;103221;-73
2021/06/14 07:48:46;;;;;;;4.83;3.53;;;;;;;17.54;58.99;100754.98;153963;1101;103101;-73
2021/06/14 07:51:51;;;;;;;5.58;3.25;;;;;;;17.56;58.66;100756.45;153966;1093;103224;-74
2021/06/14 07:54:56;;;;;;;8.25;3.60;;;;;;;17.55;59.12;100752.10;154004;1101;103124;-74
2021/06/14 07:58:02;;;;;;;6.35;2.90;;;;;;;17.58;57.39;100757.11;154002;1094;103103;-73
2021/06/14 08:01:07;;;;;;;7.57;3.03;;;;;;;17.59;58.26;100753.40;153949;1093;103104;-75
2021/06/14 08:04:12;;;;;;;5.25;3.10;;;;;;;17.65;57.65;100758.05;153925;1093;103139;-74
2021/06/14 08:07:17;;;;;;;5.85;3.00;;;;;;;17.78;57.98;100756.53;153986;1093;103211;-74
2021/06/14 08:10:22;;;;;;;6.10;2.78;;;;;;;17.88;57.81;100756.27;154021;1101;103145;-74
2021/06/14 08:13:27;;;;;;;6.93;2.95;;;;;;;18.00;58.30;100749.38;153960;1101;103128;-73
2021/06/14 08:16:38;;;;;;;4.90;2.60;;;;;;;18.09;57.18;100753.64;153927;1101;103201;-73
2021/06/14 08:19:46;;;;;;;;;;;;;;;18.17;57.25;100755.39;153985;1101;103560;-73
2021/06/14 08:26:11;;;;;;;5.98;2.70;;;;;;;18.12;56.69;100753.23;153851;1101;103197;-74
2021/06/14 08:29:16;;;;;;;4.77;2.53;;;;;;;18.23;55.67;100755.45;153992;1095;103196;-73
2021/06/14 08:32:21;;;;;;;5.88;2.48;;;;;;;18.28;55.49;100762.13;153985;1093;103158;-73
2021/06/14 08:35:28;;;;;;;3.50;2.10;;;;;;;18.32;56.33;100761.58;153984;1101;103099;-73
2021/06/14 08:38:34;;;;;;;3.65;2.20;;;;;;;18.48;55.50;100768.59;153936;1101;103197;-73
2021/06/14 08:41:40;;;;;;;4.27;2.10;;;;;;;18.59;55.96;100764.52;153957;1101;103187;-74
2021/06/14 08:44:48;;;;;;;3.87;2.27;;;;;;;18.65;54.75;100755.67;153965;1101;103577;-73
2021/06/14 08:47:54;;;;;;;4.95;2.33;;;;;;;18.71;55.00;100743.24;153956;1101;103557;-73
2021/06/14 08:50:59;;;;;;;6.43;2.40;;;;;;;18.74;53.94;100743.66;153968;1093;103148;-73
2021/06/14 08:54:07;;;;;;;3.68;1.88;;;;;;;18.73;53.26;100750.12;153936;1101;103379;-73
2021/06/14 08:57:14;;;;;;;3.33;1.78;;;;;;;18.77;53.75;100739.75;154023;1093;103176;-73
2021/06/14 09:00:23;;;;;;;5.90;1.98;;;;;;;18.85;54.20;100736.94;154004;1093;103191;-73
2021/06/14 09:03:29;;;;;;;6.43;2.60;;;;;;;18.96;53.20;100744.52;154085;1093;103128;-74
2021/06/14 09:06:34;;;;;;;3.88;2.70;;;;;;;18.99;53.29;100741.39;153985;1097;103205;-74
2021/06/14 09:09:39;;;;;;;3.63;1.70;;;;;;;19.05;52.64;100745.19;153972;1101;103253;-73
2021/06/14 09:12:44;;;;;;;3.35;1.80;;;;;;;19.12;52.55;100747.95;153983;1097;103190;-73
2021/06/14 09:15:53;;;;;;;3.97;2.17;;;;;;;19.12;52.72;100737.97;153982;1095;103110;-73
2021/06/14 09:18:58;;;;;;;4.63;2.10;;;;;;;19.16;50.15;100754.64;153947;1097;103138;-73
2021/06/14 09:22:20;;;;;;;2.88;2.10;;;;;;;19.30;51.22;100747.44;154005;1101;103107;-74
2021/06/14 09:25:24;;;;;;;;;;;;;;;19.34;51.03;100740.59;153994;1101;103129;-73
2021/06/14 09:28:29;;;;;;;4.40;1.70;;;;;;;19.39;50.87;100738.97;154061;1093;103255;-73
2021/06/14 09:31:42;;;;;;;3.57;1.90;;;;;;;19.46;51.47;100727.33;153996;1101;103155;-74
2021/06/14 09:34:52;;;;;;;3.03;1.90;;;;;;;19.61;48.37;100731.60;154101;1095;103104;-73
2021/06/14 09:38:06;;;;;;;2.70;1.67;;;;;;;19.68;49.33;100730.80;153960;1101;103200;-74
2021/06/14 09:41:16;;;;;;;2.80;1.70;;;;;;;19.62;48.11;100735.14;153986;1096;103295;-74
2021/06/14 09:44:29;;;;;;;2.43;1.55;;;;;;;19.66;49.62;100716.63;154150;1101;103133;-73
2021/06/14 09:47:34;;;;;;;3.40;2.03;;;;;;;19.73;49.39;100717.53;153967;1101;103125;-73
2021/06/14 09:50:45;;;;;;;3.23;1.88;;;;;;;19.81;49.14;100720.05;153928;1101;103218;-73
2021/06/14 09:53:52;;;;;;;4.20;1.70;;;;;;;19.80;49.54;100719.22;153996;1097;103106;-73
2021/06/14 09:56:58;;;;;;;3.55;1.80;;;;;;;19.88;48.54;100711.94;153939;1097;103267;-73
2021/06/14 10:00:14;;;;;;;3.35;1.80;;;;;;;19.92;45.90;100711.34;153992;1094;103197;-73
2021/06/14 10:03:19;;;;;;;3.15;1.58;;;;;;;19.73;47.16;100714.82;153994;1096;103142;-73
2021/06/14 10:06:34;;;;;;;3.10;1.83;;;;;;;19.84;49.14;100716.09;153974;1101;103128;-73
2021/06/14 10:09:43;;;;;;;2.53;1.58;;;;;;;20.00;49.02;100708.45;154004;1101;103125;-73
2021/06/14 10:12:54;;;;;;;3.47;1.93;;;;;;;20.03;46.49;100711.78;154170;1093;103387;-73
2021/06/14 10:16:03;;;;;;;4.28;1.80;;;;;;;20.02;47.98;100705.54;154065;1101;103099;-73
2021/06/14 10:19:11;;;;;;;3.33;1.93;;;;;;;20.17;48.51;100700.78;154055;1101;103160;-72
2021/06/14 10:22:16;;;;;;;3.27;1.70;;;;;;;20.31;46.49;100698.09;153917;1095;103128;-73
2021/06/14 10:25:23;;;;;;;2.98;1.88;;;;;;;20.27;45.35;100694.96;153907;1095;103240;-73
2021/06/14 10:28:29;;;;;;;3.87;1.80;;;;;;;20.30;46.74;100702.66;154018;1095;103314;-73
2021/06/14 10:31:35;;;;;;;4.40;1.60;;;;;;;20.33;46.77;100696.84;154114;1093;103244;-73
2021/06/14 10:34:42;;;;;;;2.80;1.75;;;;;;;20.45;46.22;100690.81;153980;1101;103104;-73
2021/06/14 10:37:49;;;;;;;2.77;1.77;;;;;;;20.64;46.76;100691.89;153976;1093;103201;-73
2021/06/14 10:40:55;;;;;;;2.15;1.33;;;;;;;20.63;44.51;100680.22;154093;1093;103192;-72
2021/06/14 10:44:01;;;;;;;2.60;1.50;;;;;;;20.54;40.30;100692.28;154011;1101;103291;-74
2021/06/14 10:47:10;;;;;;;2.70;1.25;;;;;;;20.53;42.80;100691.42;153948;1101;103179;-74
2021/06/14 10:50:16;;;;;;;1.67;1.10;;;;;;;20.56;44.33;100685.59;154036;1097;103192;-74
2021/06/14 10:53:27;;;;;;;1.70;1.20;;;;;;;20.64;43.58;100681.05;154032;1101;103217;-73
2021/06/14 10:56:33;;;;;;;1.60;1.10;;;;;;;20.67;44.32;100678.75;153965;1101;103196;-74
2021/06/14 10:59:40;;;;;;;3.15;1.30;;;;;;;20.79;45.03;100682.48;153956;1097;103311;-72
2021/06/14 11:02:55;;;;;;;1.73;1.03;;;;;;;20.89;39.32;100678.52;154000;1096;103197;-73
2021/06/14 11:06:00;;;;;;;2.03;1.30;;;;;;;20.99;44.10;100674.31;153916;1101;103231;-73
2021/06/14 11:09:10;;;;;;;2.37;1.07;;;;;;;21.03;42.97;100685.58;153917;1101;103256;-74
2021/06/14 11:12:27;;;;;;;1.80;1.07;;;;;;;21.11;43.43;100688.09;153991;1101;103110;-73
2021/06/14 11:15:36;;;;;;;2.48;1.28;;;;;;;21.07;43.01;100664.28;153979;1097;103164;-72
2021/06/14 11:18:42;;;;;;;2.20;1.20;;;;;;;21.08;40.38;100666.80;154014;1097;103130;-74
2021/06/14 11:21:55;;;;;;;1.80;1.18;;;;;;;21.07;42.08;100653.44;153952;1101;103237;-72
2021/06/14 11:25:00;;;;;;;4.95;1.20;;;;;;;21.14;42.91;100659.69;153923;1101;103474;-73
2021/06/14 11:28:10;;;;;;;3.10;1.10;;;;;;;21.22;43.15;100655.91;153974;1101;103146;-73
2021/06/14 11:31:20;;;;;;;1.90;1.20;;;;;;;21.25;41.56;100650.89;154009;1101;103251;-72
2021/06/14 11:34:25;;;;;;;2.20;1.23;;;;;;;21.26;40.60;100657.97;154008;1101;103220;-72
2021/06/14 11:37:41;;;;;;;2.00;1.20;;;;;;;21.12;38.62;100656.36;153991;1094;103145;-73
2021/06/14 11:40:53;;;;;;;2.17;1.30;;;;;;;21.17;41.80;100648.38;154039;1101;103249;-72
2021/06/14 11:44:24;;;;;;;2.48;1.20;;;;;;;21.23;38.86;100642.13;154010;1093;103148;-72
2021/06/14 11:47:30;;;;;;;2.15;1.20;;;;;;;21.26;40.44;100646.28;154029;1101;103222;-72
2021/06/14 11:50:36;;;;;;;1.87;1.10;;;;;;;21.26;41.28;100640.86;153962;1101;103219;-73
2021/06/14 11:53:52;;;;;;;1.85;1.20;;;;;;;21.30;38.62;100631.23;154027;1101;103153;-71
2021/06/14 11:57:00;;;;;;;2.00;1.20;;;;;;;21.40;40.36;100631.60;153983;1096;103220;-72
2021/06/14 12:00:11;;;;;;;1.88;1.20;;;;;;;21.41;39.74;100630.56;153948;1101;103136;-73
2021/06/14 12:03:23;;;;;;;2.78;1.50;;;;;;;21.39;39.12;100627.23;154001;1095;103270;-72
2021/06/14 12:06:29;;;;;;;3.40;1.63;;;;;;;21.43;40.37;100628.47;153999;1095;103246;-73
2021/06/14 12:09:41;;;;;;;1.87;1.10;;;;;;;21.40;37.30;100626.17;154024;1101;103173;-73
2021/06/14 12:12:46;;;;;;;4.20;1.30;;;;;;;21.42;39.13;100623.25;153984;1101;103125;-73
2021/06/14 12:15:55;;;;;;;1.58;1.23;;;;;;;21.51;40.24;100613.84;153910;1096;103139;-70
2021/06/14 12:19:02;;;;;;;1.75;1.20;;;;;;;21.62;38.18;100624.03;153820;1095;103318;-73
2021/06/14 12:22:09;;;;;;;2.00;1.10;;;;;;;21.67;37.75;100613.36;154027;1095;103198;-73
2021/06/14 12:25:16;;;;;;;2.43;1.35;;;;;;;21.69;39.03;100615.83;154035;1096;103249;-73
2021/06/14 12:28:22;;;;;;;3.35;1.40;;;;;;;21.74;39.82;100616.02;154028;1101;103221;-72
2021/06/14 12:31:27;;;;;;;3.03;1.50;;;;;;;21.77;40.21;100610.16;154254;1096;103125;-73
2021/06/14 12:34:33;;;;;;;6.30;1.50;;;;;;;21.84;39.20;100610.93;154053;1101;103288;-73
2021/06/14 12:37:39;;;;;;;1.63;1.30;;;;;;;21.80;39.81;100604.27;154171;1101;103151;-72
2021/06/14 12:40:44;;;;;;;3.38;1.20;;;;;;;21.84;38.75;100605.50;154142;1096;103197;-72
2021/06/14 12:43:50;;;;;;;2.13;1.43;;;;;;;21.86;38.01;100608.00;153932;1101;103128;-73
2021/06/14 12:46:55;;;;;;;1.60;1.30;;;;;;;21.86;39.20;100611.54;154019;1101;103191;-72
2021/06/14 12:50:02;;;;;;;1.87;1.10;;;;;;;21.82;38.67;100602.17;153954;1093;103263;-73
2021/06/14 12:53:09;;;;;;;1.70;1.20;;;;;;;21.80;37.80;100596.13;153988;1096;103135;-73
2021/06/14 12:56:15;;;;;;;1.60;1.30;;;;;;;21.76;37.36;100581.32;153979;1096;103176;-73
2021/06/14 12:59:21;;;;;;;4.07;1.40;;;;;;;21.79;38.98;100586.33;153950;1101;103115;-73
2021/06/14 13:02:26;;;;;;;2.05;1.25;;;;;;;21.80;38.51;100587.16;153991;1101;103135;-73
2021/06/14 13:05:33;;;;;;;4.73;1.23;;;;;;;21.78;38.76;100590.08;153927;1101;103271;-72
2021/06/14 13:08:40;;;;;;;1.23;1.10;;;;;;;21.84;38.87;100599.23;154006;1095;103045;-73
2021/06/14 13:11:47;;;;;;;2.73;1.30;;;;;;;21.88;39.10;100585.02;153992;1101;103248;-73
2021/06/14 13:14:52;;;;;;;1.57;1.00;;;;;;;21.78;37.88;100587.36;154065;1096;103107;-73
2021/06/14 13:17:58;;;;;;;1.75;1.20;;;;;;;21.77;38.94;100585.72;153891;1101;103243;-73
2021/06/14 13:21:08;;;;;;;2.33;1.20;;;;;;;21.84;38.95;100588.38;154000;1101;103323;-73
2021/06/14 13:24:14;;;;;;;2.43;1.47;;;;;;;21.92;37.92;100596.25;154081;1093;103711;-72
2021/06/14 13:27:21;;;;;;;2.05;1.30;;;;;;;21.84;37.06;100583.77;153912;1093;103121;-73
2021/06/14 13:30:37;;;;;;;2.10;1.27;;;;;;;21.70;37.38;100583.02;153925;1093;103074;-73
2021/06/14 13:33:47;;;;;;;1.98;1.30;;;;;;;21.73;38.73;100584.49;153946;1101;103201;-73
2021/06/14 13:36:56;;;;;;;2.70;1.45;;;;;;;21.79;38.39;100586.33;153976;1101;103286;-72
2021/06/14 13:40:10;;;;;;;2.43;1.40;;;;;;;21.78;35.21;100576.50;154005;1093;103238;-73
2021/06/14 13:43:26;;;;;;;2.03;1.30;;;;;;;21.82;35.57;100569.57;153832;1101;103144;-72
2021/06/14 13:46:40;;;;;;;2.15;1.40;;;;;;;21.83;38.11;100565.81;153952;1101;103225;-72
2021/06/14 13:49:46;;;;;;;2.43;1.33;;;;;;;21.84;37.67;100562.03;153989;1101;103129;-73
2021/06/14 13:52:51;;;;;;;2.17;1.20;;;;;;;21.90;37.85;100560.33;153924;1096;103577;-73
2021/06/14 13:55:58;;;;;;;1.90;1.20;;;;;;;21.91;37.67;100557.39;153971;1101;103199;-73
2021/06/14 13:59:03;;;;;;;2.60;1.30;;;;;;;21.96;37.35;100560.29;153976;1101;103128;-73
2021/06/14 14:02:20;;;;;;;3.73;1.43;;;;;;;21.96;37.63;100554.86;154051;1094;103125;-72
2021/06/14 14:05:27;;;;;;;2.68;1.40;;;;;;;21.98;37.75;100554.64;154041;1101;103246;-71
2021/06/14 14:08:33;;;;;;;2.10;1.30;;;;;;;22.05;38.07;100551.85;153938;1101;103391;-72
2021/06/14 14:11:38;;;;;;;3.50;1.70;;;;;;;22.07;36.66;100547.85;153954;1096;103198;-72
2021/06/14 14:14:44;;;;;;;3.30;1.70;;;;;;;22.07;37.83;100549.75;154072;1101;103140;-73